Time;durP1;ratioP1;P1;durP2;ratioP2;P2;SDS_P1;SDS_P2;PMS_P1;PMS_P2;Temp;Humidity;BMP_temperature;BMP_pressure;BME280_temperature;BME280_humidity;BME280_pressure;Samples;Min_cycle;Max_cycle;Signal;HPM_P1;HPM_P2
2021/04/19 00:01:59;;;;;;;29.60;21.63;;;8.30;99.90;;;;;;5072184;28;20434;-49
2021/04/19 00:04:26;;;;;;;26.10;20.47;;;7.90;99.90;;;;;;5071805;28;21018;-50
2021/04/19 00:06:52;;;;;;;25.77;20.93;;;8.40;99.90;;;;;;5071934;28;20424;-51
2021/04/19 00:09:18;;;;;;;30.73;21.90;;;8.20;99.90;;;;;;5072240;28;20433;-49
2021/04/19 00:11:45;;;;;;;36.13;21.60;;;8.30;99.90;;;;;;5072538;28;20437;-48
2021/04/19 00:14:11;;;;;;;27.67;21.03;;;8.20;99.90;;;;;;5072341;28;20460;-49
2021/04/19 00:16:38;;;;;;;32.77;20.80;;;8.20;99.90;;;;;;5072112;28;20505;-49
2021/04/19 00:19:06;;;;;;;29.37;22.00;;;7.90;99.90;;;;;;5071884;28;20447;-48
2021/04/19 00:21:33;;;;;;;31.80;22.33;;;8.20;99.90;;;;;;5071784;28;20474;-50
2021/04/19 00:23:59;;;;;;;27.70;22.27;;;8.10;99.90;;;;;;5071561;28;20512;-48
2021/04/19 00:26:25;;;;;;;28.97;21.37;;;8.40;99.90;;;;;;5071700;28;20820;-50
2021/04/19 00:28:52;;;;;;;28.53;22.63;;;8.20;99.90;;;;;;5072024;28;20837;-49
2021/04/19 00:31:18;;;;;;;27.77;21.27;;;8.20;99.90;;;;;;5071716;28;20459;-49
2021/04/19 00:33:45;;;;;;;26.70;21.17;;;8.10;99.90;;;;;;5071223;28;20976;-49
2021/04/19 00:36:11;;;;;;;32.10;20.90;;;8.10;99.90;;;;;;5071762;28;20528;-49
2021/04/19 00:38:38;;;;;;;28.90;21.73;;;8.10;99.90;;;;;;5071980;28;20546;-49
2021/04/19 00:41:06;;;;;;;26.80;20.93;;;8.30;99.90;;;;;;5071932;28;20436;-49
2021/04/19 00:43:32;;;;;;;29.87;22.10;;;8.20;99.90;;;;;;5071859;28;20807;-48
2021/04/19 00:46:03;;;;;;;42.60;21.80;;;8.10;99.90;;;;;;5070430;28;20461;-49
2021/04/19 00:48:32;;;;;;;46.20;22.40;;;7.90;99.90;;;;;;5071857;28;20451;-50
2021/04/19 00:50:59;;;;;;;40.33;22.60;;;8.00;99.90;;;;;;5071965;28;20448;-50
2021/04/19 00:53:26;;;;;;;41.10;21.20;;;8.10;99.90;;;;;;5071223;28;20487;-50
2021/04/19 00:55:54;;;;;;;58.67;21.10;;;8.30;99.90;;;;;;5071663;28;20428;-51
2021/04/19 00:58:24;;;;;;;56.67;21.47;;;8.20;99.90;;;;;;5071348;28;20786;-49
2021/04/19 01:00:50;;;;;;;41.20;20.03;;;7.80;99.90;;;;;;5071685;28;20441;-50
2021/04/19 01:03:18;;;;;;;108.60;22.17;;;7.70;99.90;;;;;;5070099;28;20439;-48
2021/04/19 01:05:45;;;;;;;35.20;19.67;;;8.00;99.90;;;;;;5074768;28;20470;-49
2021/04/19 01:08:13;;;;;;;58.03;20.63;;;8.00;99.90;;;;;;5075584;28;20523;-49
2021/04/19 01:10:39;;;;;;;34.53;19.30;;;7.60;99.90;;;;;;5075220;28;20528;-49
2021/04/19 01:13:07;;;;;;;88.33;23.83;;;7.20;99.90;;;;;;5075082;28;20497;-48
2021/04/19 01:15:34;;;;;;;43.23;20.37;;;8.00;99.90;;;;;;5075295;28;20794;-48
2021/04/19 01:18:06;;;;;;;77.70;21.77;;;7.90;99.90;;;;;;5075553;28;20516;-48
2021/04/19 01:20:40;;;;;;;58.53;20.07;;;7.90;99.90;;;;;;5073965;28;20440;-48
2021/04/19 01:23:08;;;;;;;64.93;22.40;;;8.00;99.90;;;;;;5073590;28;20546;-49
2021/04/19 01:25:34;;;;;;;69.53;23.80;;;7.60;99.90;;;;;;5075151;28;20437;-49
2021/04/19 01:28:01;;;;;;;42.03;20.20;;;7.50;99.90;;;;;;5073906;28;20460;-49
2021/04/19 01:30:32;;;;;;;61.57;21.53;;;7.60;99.90;;;;;;5075214;28;20434;-50
2021/04/19 01:32:59;;;;;;;59.97;22.27;;;7.40;99.90;;;;;;5074613;28;20925;-50
2021/04/19 01:35:25;;;;;;;59.70;22.13;;;7.90;99.90;;;;;;5074877;28;21003;-48
2021/04/19 01:37:53;;;;;;;50.40;22.23;;;7.60;99.90;;;;;;5074722;28;20963;-49
2021/04/19 01:40:19;;;;;;;59.27;22.40;;;7.60;99.90;;;;;;5074818;28;20439;-49
2021/04/19 01:42:47;;;;;;;71.37;21.97;;;7.70;99.90;;;;;;5073118;28;20422;-50
2021/04/19 01:45:15;;;;;;;53.33;21.30;;;7.40;99.90;;;;;;5074645;28;20452;-49
2021/04/19 01:47:42;;;;;;;35.90;19.50;;;7.50;99.90;;;;;;5074322;28;20457;-50
2021/04/19 01:50:12;;;;;;;64.07;22.13;;;7.70;99.90;;;;;;5074343;28;20828;-49
2021/04/19 01:52:39;;;;;;;55.20;22.93;;;7.50;99.90;;;;;;5072772;28;20451;-50
2021/04/19 01:55:09;;;;;;;31.70;20.90;;;7.70;99.90;;;;;;5073204;28;20480;-49
2021/04/19 01:57:43;;;;;;;42.97;21.77;;;7.40;99.90;;;;;;5073160;28;20480;-50
2021/04/19 02:00:11;;;;;;;40.77;21.17;;;7.60;99.90;;;;;;5073197;28;20462;-50
2021/04/19 02:02:51;;;;;;;42.50;22.03;;;7.70;99.90;;;;;;5074548;28;20431;-50
2021/04/19 02:05:27;;;;;;;39.70;20.40;;;7.40;99.90;;;;;;5073570;28;21022;-50
2021/04/19 02:08:07;;;;;;;27.90;21.63;;;7.60;99.90;;;;;;5074461;28;20943;-49
2021/04/19 02:10:43;;;;;;;31.70;19.97;;;7.50;99.90;;;;;;5073040;28;20451;-49
2021/04/19 02:13:14;;;;;;;34.33;19.63;;;7.40;99.90;;;;;;5055947;28;20467;-49
2021/04/19 02:15:49;;;;;;;34.13;19.70;;;7.40;99.90;;;;;;5072444;28;20454;-48
2021/04/19 02:18:27;;;;;;;32.83;18.43;;;7.90;99.90;;;;;;5074338;28;20479;-49
2021/04/19 02:20:58;;;;;;;25.03;19.00;;;7.60;99.90;;;;;;5074287;28;20437;-49
2021/04/19 02:23:26;;;;;;;25.60;19.33;;;7.60;99.90;;;;;;5073615;28;20459;-50
2021/04/19 02:25:58;;;;;;;33.60;21.77;;;7.00;99.90;;;;;;5074121;28;20462;-49
2021/04/19 02:28:28;;;;;;;39.37;21.50;;;7.60;99.90;;;;;;5072840;28;20493;-50
2021/04/19 02:31:00;;;;;;;35.27;20.70;;;7.50;99.90;;;;;;5073454;28;20451;-48
2021/04/19 02:33:30;;;;;;;31.10;21.70;;;7.80;99.90;;;;;;5073506;28;20455;-50
2021/04/19 02:35:57;;;;;;;42.37;21.50;;;7.80;99.90;;;;;;5073700;28;20463;-49
2021/04/19 02:38:28;;;;;;;29.97;21.17;;;7.40;99.90;;;;;;5073467;28;21024;-49
2021/04/19 02:41:03;;;;;;;52.00;22.20;;;7.50;99.90;;;;;;5072587;28;20572;-49
2021/04/19 02:43:32;;;;;;;72.43;26.43;;;7.00;99.90;;;;;;5072224;28;20519;-49
2021/04/19 02:46:00;;;;;;;40.07;23.07;;;7.30;99.90;;;;;;5072793;28;20473;-50
2021/04/19 02:48:27;;;;;;;102.13;25.60;;;7.30;99.90;;;;;;5073589;28;20526;-49
2021/04/19 02:51:01;;;;;;;43.30;22.20;;;7.60;99.90;;;;;;5072218;28;20443;-50
2021/04/19 02:53:28;;;;;;;42.73;20.23;;;7.50;99.90;;;;;;5072869;28;20470;-50
2021/04/19 02:55:55;;;;;;;38.33;20.90;;;7.20;99.90;;;;;;5073381;28;20431;-50
2021/04/19 02:58:30;;;;;;;33.60;21.33;;;7.40;99.90;;;;;;5071809;28;20479;-49
2021/04/19 03:00:57;;;;;;;42.93;21.17;;;7.40;99.90;;;;;;5071979;28;20535;-49
2021/04/19 03:03:29;;;;;;;31.40;20.30;;;7.30;99.90;;;;;;5072534;28;20463;-50
2021/04/19 03:06:03;;;;;;;55.80;21.73;;;7.10;99.90;;;;;;5071931;28;20732;-50
2021/04/19 03:08:33;;;;;;;34.60;21.37;;;7.20;99.90;;;;;;5071880;28;20546;-50
2021/04/19 03:11:05;;;;;;;49.63;22.23;;;7.20;99.90;;;;;;5071880;28;20529;-49
2021/04/19 03:13:37;;;;;;;31.13;20.90;;;7.40;99.90;;;;;;5071411;28;20518;-48
2021/04/19 03:16:07;;;;;;;26.23;20.23;;;7.40;99.90;;;;;;5071709;28;20447;-49
2021/04/19 03:18:37;;;;;;;30.33;19.80;;;7.30;99.90;;;;;;5071519;28;20487;-50
2021/04/19 03:21:10;;;;;;;34.63;20.23;;;7.30;99.90;;;;;;5072914;28;20431;-49
2021/04/19 03:23:45;;;;;;;38.83;22.83;;;7.70;99.90;;;;;;5071285;28;20481;-50
2021/04/19 03:26:16;;;;;;;34.77;22.80;;;7.50;99.90;;;;;;5072628;28;20444;-49
2021/04/19 03:28:47;;;;;;;35.43;20.87;;;7.60;99.90;;;;;;5070470;28;20461;-49
2021/04/19 03:31:23;;;;;;;37.53;21.40;;;7.40;99.90;;;;;;5072492;28;20435;-49
2021/04/19 03:33:52;;;;;;;28.63;19.30;;;7.10;99.90;;;;;;5070796;28;20495;-48
2021/04/19 03:36:21;;;;;;;34.00;21.17;;;7.50;99.90;;;;;;5070930;28;20450;-49
2021/04/19 03:38:49;;;;;;;42.40;21.80;;;7.40;99.90;;;;;;5070823;28;20558;-48
2021/04/19 03:41:20;;;;;;;27.60;20.40;;;7.40;99.90;;;;;;5071283;28;20448;-51
2021/04/19 03:43:56;;;;;;;26.90;21.63;;;7.20;99.90;;;;;;5070498;28;20582;-50
2021/04/19 03:46:25;;;;;;;23.77;18.63;;;7.50;99.90;;;;;;5070898;28;20886;-48
2021/04/19 03:49:04;;;;;;;43.53;20.00;;;6.90;99.90;;;;;;5070963;28;20455;-48
2021/04/19 03:51:45;;;;;;;21.83;18.40;;;7.20;99.90;;;;;;5071094;28;20822;-48
2021/04/19 03:54:15;;;;;;;57.20;20.50;;;7.50;99.90;;;;;;5070237;28;20850;-47
2021/04/19 03:56:43;;;;;;;73.23;19.57;;;7.30;99.90;;;;;;5072106;28;20464;-47
2021/04/19 03:59:22;;;;;;;35.30;17.93;;;7.20;99.90;;;;;;5071946;28;20914;-48
2021/04/19 04:02:02;;;;;;;52.17;18.93;;;7.50;99.90;;;;;;5070747;28;20455;-48
2021/04/19 04:04:36;;;;;;;35.77;17.93;;;6.80;99.90;;;;;;5070541;28;20481;-49
2021/04/19 04:07:08;;;;;;;45.73;18.73;;;7.40;99.90;;;;;;5072070;28;20948;-49
2021/04/19 04:09:42;;;;;;;35.20;18.63;;;7.30;99.90;;;;;;5070926;28;20461;-49
2021/04/19 04:12:10;;;;;;;33.77;19.57;;;7.40;99.90;;;;;;5071147;28;20948;-49
2021/04/19 04:14:50;;;;;;;44.30;20.20;;;7.20;99.90;;;;;;5070311;28;20504;-49
2021/04/19 04:17:19;;;;;;;35.17;20.07;;;7.50;99.90;;;;;;5070559;28;20451;-48
2021/04/19 04:20:14;;;;;;;72.63;22.97;;;7.40;99.90;;;;;;5062439;28;20454;-48
2021/04/19 04:23:05;;;;;;;41.37;21.33;;;7.20;99.90;;;;;;5070139;28;20461;-48
2021/04/19 04:25:37;;;;;;;43.57;20.53;;;7.50;99.90;;;;;;5071646;28;20448;-48
2021/04/19 04:28:05;;;;;;;44.23;23.00;;;7.10;99.90;;;;;;5070227;28;20449;-47
2021/04/19 04:30:38;;;;;;;25.53;20.40;;;7.00;99.90;;;;;;5070340;28;20449;-48
2021/04/19 04:33:18;;;;;;;37.03;23.17;;;7.40;99.90;;;;;;5070153;28;21002;-49
2021/04/19 04:35:48;;;;;;;30.03;21.40;;;7.30;99.90;;;;;;5069989;28;20819;-48
2021/04/19 04:38:27;;;;;;;27.60;21.13;;;7.70;99.90;;;;;;5070821;28;20914;-48
2021/04/19 04:40:56;;;;;;;27.00;20.17;;;7.50;99.90;;;;;;5074136;28;20443;-49
2021/04/19 04:43:26;;;;;;;26.63;20.23;;;7.80;99.90;;;;;;5075371;28;20434;-49
2021/04/19 04:45:56;;;;;;;34.17;23.10;;;7.20;99.90;;;;;;5075840;28;20438;-49
2021/04/19 04:48:27;;;;;;;36.00;22.87;;;7.70;99.90;;;;;;5076836;28;20432;-49
2021/04/19 04:50:59;;;;;;;32.67;21.47;;;8.00;99.90;;;;;;5076009;28;20817;-48
2021/04/19 04:53:32;;;;;;;29.53;21.87;;;7.90;99.90;;;;;;5075602;28;20491;-48
2021/04/19 04:56:00;;;;;;;32.07;22.83;;;7.80;99.90;;;;;;5075309;28;20498;-48
2021/04/19 04:58:28;;;;;;;32.50;24.03;;;8.00;99.90;;;;;;5075165;28;20591;-47
2021/04/19 05:00:56;;;;;;;42.23;24.20;;;7.60;99.90;;;;;;5075505;28;20458;-48
2021/04/19 05:03:24;;;;;;;33.70;23.90;;;7.70;99.90;;;;;;5075286;28;20538;-49
2021/04/19 05:05:51;;;;;;;30.07;22.93;;;7.90;99.90;;;;;;5075373;28;20901;-50
2021/04/19 05:08:19;;;;;;;39.93;25.10;;;7.60;99.90;;;;;;5075070;28;20427;-49
2021/04/19 05:10:45;;;;;;;32.67;24.37;;;8.30;99.90;;;;;;5074932;28;20422;-50
2021/04/19 05:13:13;;;;;;;37.60;27.70;;;7.70;99.90;;;;;;5073608;28;20990;-49
2021/04/19 05:15:43;;;;;;;30.10;23.33;;;8.00;99.90;;;;;;5075120;28;20922;-50
2021/04/19 05:18:14;;;;;;;37.97;26.00;;;7.60;99.90;;;;;;5074263;28;20839;-50
2021/04/19 05:20:40;;;;;;;28.90;22.97;;;7.90;99.90;;;;;;5074587;28;20435;-50
2021/04/19 05:23:07;;;;;;;31.00;23.67;;;7.70;99.90;;;;;;5074113;28;20492;-50
2021/04/19 05:25:34;;;;;;;29.10;23.40;;;8.10;99.90;;;;;;5074718;28;20443;-50
2021/04/19 05:28:01;;;;;;;31.97;23.00;;;7.70;99.90;;;;;;5074323;28;20424;-50
2021/04/19 05:30:29;;;;;;;33.00;25.60;;;7.80;99.90;;;;;;5074255;28;20438;-51
2021/04/19 05:32:57;;;;;;;33.77;25.30;;;7.40;99.90;;;;;;5074018;28;20439;-50
2021/04/19 05:35:24;;;;;;;28.57;22.93;;;7.80;99.90;;;;;;5074292;28;20459;-52
2021/04/19 05:37:51;;;;;;;29.93;23.53;;;7.40;99.90;;;;;;5073092;28;20609;-52
2021/04/19 05:40:19;;;;;;;29.33;24.20;;;8.10;99.90;;;;;;5074520;28;20442;-51
2021/04/19 05:42:46;;;;;;;33.07;26.07;;;8.00;99.90;;;;;;5073723;28;20870;-50
2021/04/19 05:45:15;;;;;;;31.73;25.40;;;7.80;99.90;;;;;;5074462;28;20515;-49
2021/04/19 05:47:43;;;;;;;31.20;25.70;;;7.90;99.90;;;;;;5074189;28;20773;-49
2021/04/19 05:50:11;;;;;;;32.00;24.37;;;7.90;99.90;;;;;;5073964;28;20423;-50
2021/04/19 05:52:39;;;;;;;30.50;25.30;;;7.70;99.90;;;;;;5072967;28;20489;-52
2021/04/19 05:55:07;;;;;;;33.60;25.57;;;8.00;99.90;;;;;;5074145;28;20510;-50
2021/04/19 05:57:39;;;;;;;30.03;24.37;;;8.10;99.90;;;;;;5074087;28;20472;-51
2021/04/19 06:00:15;;;;;;;34.43;27.43;;;8.10;99.90;;;;;;5074320;28;20490;-51
2021/04/19 06:02:46;;;;;;;32.30;25.33;;;8.20;99.90;;;;;;5073900;28;20432;-51
2021/04/19 06:05:19;;;;;;;40.30;29.30;;;8.10;99.90;;;;;;5074043;28;20890;-51
2021/04/19 06:07:51;;;;;;;38.77;27.37;;;8.10;99.90;;;;;;5073837;28;20424;-51
2021/04/19 06:10:51;;;;;;;44.13;32.50;;;8.10;99.90;;;;;;5074340;28;20440;-49
2021/04/19 06:13:29;;;;;;;32.93;25.87;;;8.10;99.90;;;;;;5072600;28;20468;-50
2021/04/19 06:16:00;;;;;;;34.57;25.87;;;8.10;99.90;;;;;;5073602;28;20504;-50
2021/04/19 06:18:28;;;;;;;46.63;27.50;;;8.10;99.90;;;;;;5074450;28;20467;-51
2021/04/19 06:20:56;;;;;;;34.77;27.23;;;8.30;99.90;;;;;;5073844;28;20435;-51
2021/04/19 06:23:24;;;;;;;34.03;25.17;;;8.40;99.90;;;;;;5073151;28;20821;-50
2021/04/19 06:25:51;;;;;;;38.47;26.17;;;8.50;99.90;;;;;;5073433;28;20425;-52
2021/04/19 06:28:17;;;;;;;31.43;24.80;;;8.60;99.90;;;;;;5073272;28;20436;-50
2021/04/19 06:30:45;;;;;;;34.50;25.77;;;8.50;99.90;;;;;;5073366;28;20505;-52
2021/04/19 06:33:15;;;;;;;31.37;24.47;;;8.70;99.90;;;;;;5073005;28;20525;-49
2021/04/19 06:35:41;;;;;;;32.50;25.40;;;8.90;99.90;;;;;;5073155;28;20457;-50
2021/04/19 06:38:08;;;;;;;28.93;24.33;;;8.70;99.90;;;;;;5072962;28;20560;-51
2021/04/19 06:40:37;;;;;;;31.93;25.47;;;8.70;99.90;;;;;;5071725;28;20822;-49
2021/04/19 06:43:04;;;;;;;28.57;23.63;;;9.10;99.90;;;;;;5072551;28;20468;-52
2021/04/19 06:45:33;;;;;;;24.70;22.00;;;9.10;99.90;;;;;;5072168;28;20476;-50
2021/04/19 06:48:03;;;;;;;28.27;21.43;;;9.30;99.90;;;;;;5073300;28;20445;-50
2021/04/19 06:50:29;;;;;;;27.60;21.33;;;8.90;99.90;;;;;;5073052;28;20921;-50
2021/04/19 06:52:55;;;;;;;24.60;21.50;;;9.20;99.90;;;;;;5072549;28;20458;-51
2021/04/19 06:55:25;;;;;;;28.30;21.97;;;9.20;99.90;;;;;;5072412;28;20541;-51
2021/04/19 06:57:54;;;;;;;27.97;23.67;;;9.30;99.90;;;;;;5072528;28;20551;-51
2021/04/19 07:00:22;;;;;;;25.27;21.67;;;9.20;99.90;;;;;;5072824;28;20507;-50
2021/04/19 07:02:53;;;;;;;29.77;22.50;;;9.10;99.90;;;;;;5072325;28;20441;-50
2021/04/19 07:05:21;;;;;;;25.93;23.13;;;8.70;99.90;;;;;;5072911;28;20434;-50
2021/04/19 07:07:52;;;;;;;28.70;23.17;;;9.30;99.90;;;;;;5072324;28;21029;-50
2021/04/19 07:10:19;;;;;;;26.80;22.27;;;9.20;99.90;;;;;;5072768;28;20430;-51
2021/04/19 07:12:47;;;;;;;28.80;24.43;;;9.30;99.90;;;;;;5072224;28;20433;-51
2021/04/19 07:15:16;;;;;;;28.57;25.10;;;9.10;99.90;;;;;;5072674;28;20453;-51
2021/04/19 07:17:45;;;;;;;42.00;33.77;;;9.40;99.90;;;;;;5072832;28;20889;-52
2021/04/19 07:20:12;;;;;;;30.30;26.57;;;9.90;99.90;;;;;;5072789;28;20582;-50
2021/04/19 07:22:40;;;;;;;28.90;25.27;;;9.40;99.90;;;;;;5072171;28;20495;-50
2021/04/19 07:25:08;;;;;;;27.93;24.93;;;9.70;99.90;;;;;;5072665;28;20507;-50
2021/04/19 07:27:37;;;;;;;29.77;25.40;;;9.40;99.90;;;;;;5072569;28;20515;-49
2021/04/19 07:30:05;;;;;;;27.50;24.50;;;9.30;99.90;;;;;;5072866;28;20440;-50
2021/04/19 07:32:34;;;;;;;27.73;23.97;;;9.70;99.90;;;;;;5072866;28;20473;-50
2021/04/19 07:35:01;;;;;;;26.80;23.90;;;9.60;99.90;;;;;;5072656;28;20433;-49
2021/04/19 07:37:28;;;;;;;26.63;23.57;;;9.50;99.90;;;;;;5072438;28;20568;-50
2021/04/19 07:39:56;;;;;;;26.17;23.37;;;9.40;99.90;;;;;;5072038;28;20433;-50
2021/04/19 07:42:23;;;;;;;24.97;22.37;;;9.70;99.90;;;;;;5071479;28;20471;-51
2021/04/19 07:44:50;;;;;;;26.60;23.63;;;9.60;99.90;;;;;;5071895;28;20977;-50
2021/04/19 07:47:35;;;;;;;28.00;24.50;;;9.70;99.90;;;;;;5071944;28;20457;-49
2021/04/19 07:50:09;;;;;;;27.77;24.10;;;9.70;99.90;;;;;;5071895;28;20923;-50
2021/04/19 07:52:38;;;;;;;26.43;23.50;;;10.10;99.90;;;;;;5071994;28;20869;-51
2021/04/19 07:55:10;;;;;;;27.50;24.60;;;9.90;99.90;;;;;;5071824;28;20472;-50
2021/04/19 07:57:38;;;;;;;27.90;24.87;;;9.90;99.90;;;;;;5072030;28;20472;-50
2021/04/19 08:00:07;;;;;;;32.90;25.90;;;10.10;99.90;;;;;;5072723;28;20425;-51
2021/04/19 08:02:39;;;;;;;34.23;27.23;;;10.10;99.90;;;;;;5071905;28;20487;-52
2021/04/19 08:05:07;;;;;;;28.43;25.43;;;10.00;99.90;;;;;;5072239;28;20463;-50
2021/04/19 08:07:34;;;;;;;29.33;26.30;;;10.20;99.90;;;;;;5072717;28;20575;-51
2021/04/19 08:10:02;;;;;;;28.63;25.60;;;9.90;99.90;;;;;;5072567;28;20404;-51
2021/04/19 08:12:37;;;;;;;29.63;26.53;;;10.10;99.90;;;;;;5072201;28;20492;-50
2021/04/19 08:15:06;;;;;;;31.10;27.70;;;10.40;99.90;;;;;;5071398;28;20532;-50
2021/04/19 08:17:33;;;;;;;31.30;27.90;;;10.70;99.90;;;;;;5072082;28;21003;-51
2021/04/19 08:20:04;;;;;;;29.13;26.00;;;10.80;99.90;;;;;;5070368;28;20857;-51
2021/04/19 08:22:31;;;;;;;32.47;28.60;;;10.70;99.90;;;;;;5070540;28;20523;-50
2021/04/19 08:25:12;;;;;;;32.53;29.00;;;11.20;99.90;;;;;;5072378;28;20456;-50
2021/04/19 08:27:40;;;;;;;32.53;28.50;;;10.80;99.90;;;;;;5072980;28;20863;-50
2021/04/19 08:30:08;;;;;;;31.87;28.57;;;11.20;99.90;;;;;;5072794;28;20526;-50
2021/04/19 08:32:35;;;;;;;32.90;29.47;;;11.20;99.90;;;;;;5072280;28;20844;-50
2021/04/19 08:35:03;;;;;;;34.70;29.17;;;11.50;99.90;;;;;;5072421;28;20507;-51
2021/04/19 08:37:30;;;;;;;32.83;28.97;;;11.40;99.90;;;;;;5072417;28;20473;-52
2021/04/19 08:39:59;;;;;;;35.37;31.67;;;11.40;99.90;;;;;;5072162;28;20426;-51
2021/04/19 08:42:26;;;;;;;37.60;33.60;;;11.60;99.90;;;;;;5071952;28;20792;-51
2021/04/19 08:44:56;;;;;;;35.33;31.47;;;11.70;99.90;;;;;;5071894;28;20529;-53
2021/04/19 08:47:27;;;;;;;38.83;33.57;;;11.40;99.90;;;;;;5072064;28;20503;-50
2021/04/19 08:49:54;;;;;;;35.07;29.67;;;11.40;99.90;;;;;;5071782;28;20510;-50
2021/04/19 08:52:23;;;;;;;36.70;32.80;;;11.60;99.90;;;;;;5072476;28;20440;-53
2021/04/19 08:54:50;;;;;;;35.90;32.30;;;11.30;99.90;;;;;;5072253;28;20465;-52
2021/04/19 08:57:17;;;;;;;35.53;31.73;;;11.40;99.90;;;;;;5071764;28;20446;-51
2021/04/19 08:59:46;;;;;;;35.03;31.43;;;11.50;99.90;;;;;;5072250;28;20457;-51
2021/04/19 09:02:14;;;;;;;35.10;31.37;;;11.70;99.90;;;;;;5071961;28;20437;-51
2021/04/19 09:04:42;;;;;;;36.37;32.57;;;11.40;99.90;;;;;;5070341;28;20466;-50
2021/04/19 09:07:09;;;;;;;38.73;32.27;;;11.40;99.90;;;;;;5071251;28;20429;-52
2021/04/19 09:09:39;;;;;;;35.90;32.10;;;11.50;99.90;;;;;;5071665;28;20429;-53
2021/04/19 09:12:24;;;;;;;37.00;32.00;;;11.20;99.90;;;;;;5071824;28;20472;-51
2021/04/19 09:15:07;;;;;;;33.20;29.70;;;11.10;99.90;;;;;;5072104;28;20469;-50
2021/04/19 09:17:33;;;;;;;32.30;28.73;;;11.20;99.90;;;;;;5071498;28;20516;-50
2021/04/19 09:20:00;;;;;;;30.37;27.13;;;11.10;99.90;;;;;;5071182;28;20430;-50
2021/04/19 09:22:27;;;;;;;30.67;27.47;;;11.00;99.90;;;;;;5071331;28;20886;-50
2021/04/19 09:25:05;;;;;;;27.43;24.57;;;10.70;99.90;;;;;;5071280;28;20449;-49
2021/04/19 09:27:46;;;;;;;38.77;34.57;;;10.80;99.90;;;;;;5075181;28;20521;-52
2021/04/19 09:30:30;;;;;;;36.37;32.20;;;10.90;99.90;;;;;;5075412;28;20425;-52
2021/04/19 09:33:20;;;;;;;31.30;27.97;;;11.10;99.90;;;;;;5075250;28;20484;-51
2021/04/19 09:35:49;;;;;;;27.13;24.20;;;11.20;99.90;;;;;;5075265;28;20567;-51
2021/04/19 09:38:17;;;;;;;28.53;25.43;;;11.20;99.90;;;;;;5074718;28;20550;-50
2021/04/19 09:40:50;;;;;;;26.60;23.73;;;11.60;99.90;;;;;;5074655;28;20442;-51
2021/04/19 09:43:30;;;;;;;28.20;25.10;;;11.20;99.90;;;;;;5072315;28;20471;-50
2021/04/19 09:45:59;;;;;;;26.10;23.40;;;11.90;99.90;;;;;;5074767;28;20437;-51
2021/04/19 09:48:55;;;;;;;29.40;25.00;;;11.90;99.90;;;;;;5072825;28;20818;-52
2021/04/19 09:51:23;;;;;;;28.07;25.07;;;12.00;99.90;;;;;;5074688;28;20527;-51
2021/04/19 09:53:55;;;;;;;25.53;22.83;;;12.20;99.90;;;;;;5074220;28;20492;-53
2021/04/19 09:56:25;;;;;;;27.03;24.23;;;11.90;99.90;;;;;;5074471;28;20483;-51
2021/04/19 09:58:51;;;;;;;26.87;24.17;;;12.20;99.90;;;;;;5074346;28;20493;-51
2021/04/19 10:01:19;;;;;;;25.53;22.93;;;12.50;99.90;;;;;;5073561;28;20438;-50
2021/04/19 10:03:48;;;;;;;24.07;21.70;;;12.60;99.90;;;;;;5073534;28;20535;-50
2021/04/19 10:06:18;;;;;;;24.43;21.90;;;12.60;99.90;;;;;;5074003;28;20424;-52
2021/04/19 10:08:46;;;;;;;24.20;21.80;;;12.70;99.90;;;;;;5074387;28;20436;-51
2021/04/19 10:11:13;;;;;;;22.07;19.83;;;12.80;99.90;;;;;;5074261;28;20432;-51
2021/04/19 10:13:41;;;;;;;25.90;22.93;;;12.90;99.90;;;;;;5074045;28;20449;-49
2021/04/19 10:16:10;;;;;;;23.27;20.83;;;13.40;99.90;;;;;;5074211;28;20519;-49
2021/04/19 10:18:39;;;;;;;25.73;22.80;;;12.70;99.90;;;;;;5073487;28;20488;-49
2021/04/19 10:21:07;;;;;;;21.37;19.17;;;13.20;99.90;;;;;;5073513;28;20809;-49
2021/04/19 10:23:35;;;;;;;22.03;19.90;;;13.40;99.90;;;;;;5073111;28;20476;-49
2021/04/19 10:26:03;;;;;;;24.53;21.73;;;13.50;99.90;;;;;;5073571;28;20512;-49
2021/04/19 10:28:32;;;;;;;25.73;23.03;;;13.40;99.90;;;;;;5073313;28;20432;-49
2021/04/19 10:31:15;;;;;;;30.47;25.10;;;13.30;99.90;;;;;;5071815;28;20457;-48
2021/04/19 10:33:44;;;;;;;22.83;18.83;;;13.60;99.90;;;;;;5071758;28;20542;-49
2021/04/19 10:36:13;;;;;;;22.07;19.87;;;13.80;99.90;;;;;;5073584;28;20844;-51
2021/04/19 10:38:39;;;;;;;23.80;21.17;;;13.80;99.90;;;;;;5072533;28;20487;-49
2021/04/19 10:41:06;;;;;;;22.47;19.83;;;14.10;99.90;;;;;;5073723;28;20435;-48
2021/04/19 10:43:33;;;;;;;24.70;22.10;;;13.50;99.90;;;;;;5072918;28;20448;-50
2021/04/19 10:46:00;;;;;;;21.77;19.50;;;14.10;99.90;;;;;;5073432;28;20510;-49
2021/04/19 10:48:29;;;;;;;21.97;19.77;;;14.10;99.90;;;;;;5073274;28;20490;-50
2021/04/19 10:51:13;;;;;;;22.70;20.20;;;14.00;99.90;;;;;;5072846;28;20432;-51
2021/04/19 10:53:41;;;;;;;22.87;20.47;;;14.20;99.90;;;;;;5085212;22;20545;-50
2021/04/19 10:56:08;;;;;;;24.07;21.07;;;14.20;99.90;;;;;;5071189;28;20535;-49
2021/04/19 10:58:36;;;;;;;24.83;22.23;;;14.50;99.90;;;;;;5071208;28;20491;-50
2021/04/19 11:01:04;;;;;;;24.87;22.17;;;14.60;99.90;;;;;;5071215;28;20468;-50
2021/04/19 11:03:38;;;;;;;27.23;23.53;;;15.10;99.90;;;;;;5072244;28;20438;-51
2021/04/19 11:06:06;;;;;;;30.93;22.50;;;14.90;99.90;;;;;;5071755;28;20522;-51
2021/04/19 11:08:52;;;;;;;27.43;24.07;;;15.00;99.90;;;;;;5071135;28;20440;-51
2021/04/19 11:11:40;;;;;;;27.40;24.53;;;15.00;99.90;;;;;;5071190;28;20433;-51
2021/04/19 11:14:26;;;;;;;27.33;24.50;;;15.20;99.90;;;;;;5071064;28;20454;-51
2021/04/19 11:16:57;;;;;;;27.90;23.30;;;15.60;99.90;;;;;;5070854;28;20445;-52
2021/04/19 11:19:41;;;;;;;30.17;25.63;;;15.60;99.90;;;;;;5071179;28;20977;-52
2021/04/19 11:22:19;;;;;;;27.03;24.17;;;15.40;99.90;;;;;;5070942;28;20543;-52
2021/04/19 11:24:46;;;;;;;29.63;24.67;;;15.40;99.90;;;;;;5070902;28;20457;-51
2021/04/19 11:27:12;;;;;;;31.77;26.80;;;15.50;99.90;;;;;;5070865;28;20513;-52
2021/04/19 11:29:41;;;;;;;31.10;25.13;;;15.50;99.90;;;;;;5070892;28;20503;-50
2021/04/19 11:32:09;;;;;;;36.50;25.07;;;15.40;99.90;;;;;;5069284;28;20803;-52
2021/04/19 11:34:40;;;;;;;30.50;26.13;;;15.60;99.90;;;;;;5069909;28;20974;-51
2021/04/19 11:37:07;;;;;;;29.90;26.00;;;15.50;99.90;;;;;;5069347;28;20450;-52
2021/04/19 11:39:39;;;;;;;27.77;24.53;;;15.40;99.90;;;;;;5070427;28;20473;-52
2021/04/19 11:42:26;;;;;;;28.30;24.53;;;15.30;99.90;;;;;;5069962;28;20434;-52
2021/04/19 11:44:53;;;;;;;25.00;22.30;;;15.20;99.90;;;;;;5070085;28;20461;-52
2021/04/19 11:47:20;;;;;;;29.40;25.57;;;15.70;99.90;;;;;;5070481;28;20803;-51
2021/04/19 11:49:51;;;;;;;28.10;23.80;;;15.40;99.90;;;;;;5067654;28;20869;-50
2021/04/19 11:52:18;;;;;;;30.37;26.03;;;15.70;99.90;;;;;;5069949;28;20451;-52
2021/04/19 11:54:45;;;;;;;29.10;23.70;;;15.30;99.90;;;;;;5069327;28;20469;-52
2021/04/19 11:57:12;;;;;;;29.17;23.67;;;15.70;99.90;;;;;;5068531;28;20453;-52
2021/04/19 11:59:45;;;;;;;27.60;24.70;;;15.40;99.90;;;;;;5082809;28;20493;-51
2021/04/19 12:02:18;;;;;;;26.97;24.13;;;15.10;99.90;;;;;;5069305;28;20586;-51
2021/04/19 12:04:45;;;;;;;27.20;24.27;;;15.60;99.90;;;;;;5070226;28;20507;-49
2021/04/19 12:07:12;;;;;;;25.73;23.03;;;15.60;99.90;;;;;;5070261;28;20448;-51
2021/04/19 12:09:39;;;;;;;28.20;24.40;;;15.50;99.90;;;;;;5070330;28;20818;-48
2021/04/19 12:12:07;;;;;;;27.30;23.87;;;15.10;99.90;;;;;;5070162;28;20643;-48
2021/04/19 12:14:33;;;;;;;26.73;23.40;;;15.40;99.90;;;;;;5069197;28;20467;-49
2021/04/19 12:17:00;;;;;;;24.77;22.27;;;15.50;99.90;;;;;;5068389;28;20452;-49
2021/04/19 12:19:27;;;;;;;30.80;25.10;;;15.30;99.90;;;;;;5069396;28;20488;-50
2021/04/19 12:21:53;;;;;;;32.27;25.87;;;15.30;99.90;;;;;;5069311;28;20422;-49
2021/04/19 12:24:20;;;;;;;27.90;24.90;;;15.30;99.90;;;;;;5069359;28;20814;-50
2021/04/19 12:26:47;;;;;;;29.47;26.57;;;15.40;99.90;;;;;;5068084;28;20484;-50
2021/04/19 12:29:14;;;;;;;27.93;25.00;;;15.20;99.90;;;;;;5070028;28;20487;-50
2021/04/19 12:31:40;;;;;;;28.20;25.17;;;15.40;99.90;;;;;;5069562;28;20430;-50
2021/04/19 12:34:07;;;;;;;29.13;26.17;;;15.30;99.90;;;;;;5067457;28;20470;-51
2021/04/19 12:36:33;;;;;;;27.63;24.63;;;15.40;99.90;;;;;;5069372;28;20495;-50
2021/04/19 12:39:01;;;;;;;28.67;23.53;;;15.30;99.90;;;;;;5069015;28;20582;-49
2021/04/19 12:41:28;;;;;;;28.60;24.37;;;15.60;99.90;;;;;;5069038;28;20434;-50
2021/04/19 12:43:54;;;;;;;27.60;24.13;;;15.10;99.90;;;;;;5069518;28;20982;-49
2021/04/19 12:46:21;;;;;;;28.97;24.47;;;15.40;99.90;;;;;;5069164;28;20483;-52
2021/04/19 12:48:47;;;;;;;26.60;23.70;;;15.60;99.90;;;;;;5069453;28;20430;-49